Time;durP1;ratioP1;P1;durP2;ratioP2;P2;SDS_P1;SDS_P2;PMS_P1;PMS_P2;Temp;Humidity;BMP_temperature;BMP_pressure;BME280_temperature;BME280_humidity;BME280_pressure;Samples;Min_cycle;Max_cycle;Signal;HPM_P1;HPM_P2
2023/10/31 00:02:06;;;;;;;20.05;19.35;;;;;;;-141.02;100.00;38877.81;5094673;28;20281;-63
2023/10/31 00:04:33;;;;;;;20.20;19.50;;;;;;;-141.02;100.00;38860.56;5094665;28;20680;-63
2023/10/31 00:07:00;;;;;;;19.20;18.60;;;;;;;-141.02;100.00;38885.50;5094983;28;20633;-63
2023/10/31 00:09:27;;;;;;;19.73;19.02;;;;;;;-141.02;100.00;38895.09;5094510;28;20791;-63
2023/10/31 00:11:54;;;;;;;19.42;18.75;;;;;;;-141.02;100.00;38875.91;5094491;28;20285;-63
2023/10/31 00:14:21;;;;;;;17.60;17.00;;;;;;;-141.02;100.00;38854.81;5094806;28;20263;-63
2023/10/31 00:16:50;;;;;;;19.20;18.50;;;;;;;-141.02;100.00;38881.66;5094735;28;20259;-63
2023/10/31 00:19:39;;;;;;;20.25;19.55;;;;;;;-141.02;100.00;38822.22;5094270;28;20332;-63
2023/10/31 00:22:09;;;;;;;17.92;17.33;;;;;;;-141.02;100.00;38831.81;5094309;28;20703;-63
2023/10/31 00:24:36;;;;;;;17.65;17.05;;;;;;;-141.02;100.00;38833.72;5094281;28;20579;-63
2023/10/31 00:27:06;;;;;;;18.20;17.60;;;;;;;-141.02;100.00;38768.53;5094268;28;20197;-63
2023/10/31 00:29:34;;;;;;;19.35;18.70;;;;;;;-141.02;100.00;38799.22;5093397;28;20223;-63
2023/10/31 00:32:07;;;;;;;19.23;18.63;;;;;;;-141.02;100.00;38745.53;5094381;28;20202;-63
2023/10/31 00:34:35;;;;;;;18.73;18.13;;;;;;;-141.02;100.00;38741.69;5094392;28;20668;-63
2023/10/31 00:37:05;;;;;;;19.70;19.00;;;;;;;-141.02;100.00;38831.81;5094008;28;20205;-64
2023/10/31 00:39:34;;;;;;;18.40;17.80;;;;;;;-141.02;100.00;38879.75;5094286;28;20194;-63
2023/10/31 00:42:08;;;;;;;18.13;17.52;;;;;;;-141.02;100.00;38879.75;5093995;28;20200;-63
2023/10/31 00:44:44;;;;;;;18.50;17.90;;;;;;;-141.02;100.00;38860.56;5093919;28;20194;-63
2023/10/31 00:47:14;;;;;;;18.55;17.95;;;;;;;-141.02;100.00;38929.59;5094151;28;20212;-63
2023/10/31 00:49:45;;;;;;;18.50;17.90;;;;;;;-141.02;100.00;38925.75;5093680;28;20669;-63
2023/10/31 00:52:14;;;;;;;17.55;16.95;;;;;;;-141.02;100.00;38967.94;5093751;28;20229;-63
2023/10/31 00:54:42;;;;;;;21.60;20.80;;;;;;;-141.02;100.00;39063.81;5093610;28;20190;-63
2023/10/31 00:57:08;;;;;;;21.73;20.92;;;;;;;-141.02;100.00;38826.06;5093992;28;20190;-63
2023/10/31 00:59:36;;;;;;;22.02;21.23;;;;;;;-141.02;100.00;39140.53;5093854;28;20202;-63
2023/10/31 01:02:02;;;;;;;20.10;19.40;;;;;;;-141.02;100.00;39159.72;5093536;28;20198;-63
2023/10/31 01:04:29;;;;;;;22.75;21.95;;;;;;;-141.02;100.00;39171.22;5093789;28;20198;-63
2023/10/31 01:06:58;;;;;;;19.60;18.90;;;;;;;-141.02;100.00;39159.72;5093684;28;20198;-63
2023/10/31 01:09:25;;;;;;;24.50;23.60;;;;;;;-141.02;100.00;39182.72;5093464;28;20194;-63
2023/10/31 01:11:52;;;;;;;23.55;22.65;;;;;;;-141.02;100.00;39209.56;5093244;28;20261;-63
2023/10/31 01:14:19;;;;;;;22.70;21.85;;;;;;;-141.02;100.00;39232.59;5093564;28;20576;-63
2023/10/31 01:16:46;;;;;;;19.80;19.10;;;;;;;-141.02;100.00;39305.44;5093211;28;20651;-63
2023/10/31 01:19:13;;;;;;;20.95;20.23;;;;;;;-141.02;100.00;39301.63;5092984;28;20237;-63
2023/10/31 01:21:40;;;;;;;20.67;19.98;;;;;;;-141.02;100.00;39267.09;5093508;28;20277;-63
2023/10/31 01:24:09;;;;;;;20.10;19.40;;;;;;;-141.02;100.00;39244.09;5093378;28;20194;-63
2023/10/31 01:26:36;;;;;;;21.08;20.27;;;;;;;-141.02;100.00;39274.78;5093051;28;20232;-63
2023/10/31 01:29:03;;;;;;;19.10;18.40;;;;;;;-141.02;100.00;39263.25;5093305;28;20208;-63
2023/10/31 01:31:32;;;;;;;18.45;17.85;;;;;;;-141.02;100.00;39217.25;5092855;28;20578;-63
2023/10/31 01:33:59;;;;;;;22.02;21.23;;;;;;;-141.02;100.00;39232.59;5092951;28;20223;-63
2023/10/31 01:36:27;;;;;;;22.58;21.77;;;;;;;-141.02;100.00;39286.28;5092912;28;20206;-63
2023/10/31 01:38:53;;;;;;;23.88;22.98;;;;;;;-141.02;100.00;39259.44;5092876;28;20579;-63
2023/10/31 01:41:22;;;;;;;23.70;22.80;;;;;;;-141.02;100.00;39290.13;5091989;28;20718;-63
2023/10/31 01:43:52;;;;;;;25.60;24.60;;;;;;;-141.02;100.00;39324.63;5092832;28;20580;-63
2023/10/31 01:46:20;;;;;;;25.00;24.00;;;;;;;-141.02;100.00;39224.91;5093004;28;20675;-63
2023/10/31 01:48:48;;;;;;;24.77;23.80;;;;;;;-141.02;100.00;39236.41;5092706;28;20198;-63
2023/10/31 01:51:15;;;;;;;23.92;23.02;;;;;;;-141.02;100.00;39213.41;5092582;28;20300;-63
2023/10/31 01:53:45;;;;;;;23.70;22.80;;;;;;;-141.02;100.00;39230.66;5092896;28;20247;-63
2023/10/31 01:56:12;;;;;;;24.50;23.60;;;;;;;-141.02;100.00;39247.91;5092546;28;20255;-63
2023/10/31 01:58:43;;;;;;;24.58;23.67;;;;;;;-141.02;100.00;39251.75;5092524;28;20201;-62
2023/10/31 02:01:10;;;;;;;21.23;20.45;;;;;;;-141.02;100.00;39236.41;5092543;28;20251;-63
2023/10/31 02:03:38;;;;;;;22.55;21.75;;;;;;;-141.02;100.00;39244.09;5092457;28;20759;-63
2023/10/31 02:06:05;;;;;;;23.10;22.23;;;;;;;-141.02;100.00;39263.25;5092704;28;20194;-63
2023/10/31 02:08:32;;;;;;;23.35;22.48;;;;;;;-141.02;100.00;39176.97;5092374;28;20734;-63
2023/10/31 02:10:59;;;;;;;20.25;19.55;;;;;;;-141.02;100.00;39217.25;5092224;28;20312;-63
2023/10/31 02:13:29;;;;;;;22.27;21.48;;;;;;;-141.02;100.00;39247.91;5092668;28;20247;-63
2023/10/31 02:15:59;;;;;;;23.52;22.63;;;;;;;-141.02;100.00;39201.91;5092245;28;20194;-63
2023/10/31 02:18:29;;;;;;;22.75;21.95;;;;;;;-141.02;100.00;39182.72;5091772;28;20229;-63
2023/10/31 02:20:56;;;;;;;22.83;22.02;;;;;;;-141.02;100.00;39176.97;5092150;28;20208;-63
2023/10/31 02:23:24;;;;;;;21.42;20.63;;;;;;;-141.02;100.00;39035.06;5092210;28;20198;-63
2023/10/31 02:25:51;;;;;;;14.02;13.63;;;;;;;-141.02;100.00;38990.97;5092492;28;20226;-63
2023/10/31 02:28:18;;;;;;;14.10;13.70;;;;;;;-141.02;100.00;38987.13;5092193;28;20282;-63
2023/10/31 02:30:46;;;;;;;18.65;18.05;;;;;;;-141.02;100.00;38967.94;5092055;28;20218;-63
2023/10/31 02:33:12;;;;;;;19.45;18.85;;;;;;;-141.02;100.00;38921.94;5092347;28;20200;-63
2023/10/31 02:35:39;;;;;;;18.10;17.50;;;;;;;-141.02;100.00;38948.78;5092000;28;20620;-63
2023/10/31 02:38:06;;;;;;;18.17;17.58;;;;;;;-141.02;100.00;38962.19;5091983;28;20281;-63
2023/10/31 02:40:37;;;;;;;19.90;19.20;;;;;;;-141.02;100.00;38954.53;5091983;28;20679;-63
2023/10/31 02:43:07;;;;;;;21.20;20.50;;;;;;;-141.02;100.00;38944.94;5092337;28;20198;-63
2023/10/31 02:45:34;;;;;;;20.40;19.70;;;;;;;-141.02;100.00;38860.56;5091956;28;20202;-63
2023/10/31 02:48:01;;;;;;;19.83;19.13;;;;;;;-141.02;100.00;38826.06;5091940;28;20670;-63
2023/10/31 02:50:30;;;;;;;19.40;18.80;;;;;;;-141.02;100.00;38783.88;5091788;28;20193;-63
2023/10/31 02:52:57;;;;;;;20.08;19.38;;;;;;;-141.02;100.00;38854.81;5094773;28;20606;-63
2023/10/31 02:55:28;;;;;;;19.88;19.17;;;;;;;-141.02;100.00;38837.56;5096239;28;20224;-63
2023/10/31 02:57:59;;;;;;;16.95;16.45;;;;;;;-141.02;100.00;38822.22;5096019;28;20206;-63
2023/10/31 03:00:32;;;;;;;20.50;19.70;;;;;;;-141.02;100.00;38826.06;5096172;28;20197;-63
2023/10/31 03:02:59;;;;;;;22.73;21.92;;;;;;;-141.02;100.00;38850.97;5095851;28;20190;-62
2023/10/31 03:05:26;;;;;;;20.63;19.83;;;;;;;-141.02;100.00;38891.25;5096133;28;20190;-63
2023/10/31 03:07:53;;;;;;;20.38;19.58;;;;;;;-141.02;100.00;38841.41;5095752;28;20233;-63
2023/10/31 03:10:32;;;;;;;21.30;20.50;;;;;;;-141.02;100.00;38730.19;5095688;28;20194;-63
2023/10/31 03:13:02;;;;;;;19.92;19.23;;;;;;;-141.02;100.00;38649.66;5096029;28;20221;-63
2023/10/31 03:15:29;;;;;;;18.75;18.05;;;;;;;-141.02;100.00;38584.47;5095941;28;20200;-62
2023/10/31 03:17:56;;;;;;;19.95;19.20;;;;;;;-141.02;100.00;38638.16;5095793;28;20236;-63
2023/10/31 03:20:23;;;;;;;20.87;20.07;;;;;;;-141.02;100.00;38624.72;5095842;28;20198;-62
2023/10/31 03:22:50;;;;;;;17.00;16.50;;;;;;;-141.02;100.00;38553.78;5095774;28;20271;-63
2023/10/31 03:25:17;;;;;;;16.50;16.00;;;;;;;-141.02;100.00;38538.44;5095391;28;20687;-62
2023/10/31 03:27:44;;;;;;;16.55;16.05;;;;;;;-141.02;100.00;38507.78;5095395;28;20667;-62
2023/10/31 03:30:13;;;;;;;17.52;16.92;;;;;;;-141.02;100.00;38576.78;5095624;28;20296;-63
2023/10/31 03:32:40;;;;;;;17.98;17.38;;;;;;;-141.02;100.00;38511.59;5095166;28;20272;-63
2023/10/31 03:35:08;;;;;;;17.10;16.60;;;;;;;-141.02;100.00;38461.75;5095468;28;20272;-63
2023/10/31 03:37:35;;;;;;;17.10;16.60;;;;;;;-141.02;100.00;38390.81;5095491;28;20198;-63
2023/10/31 03:40:03;;;;;;;16.73;16.23;;;;;;;-141.02;100.00;38427.25;5095111;28;20240;-62
2023/10/31 03:42:30;;;;;;;18.00;17.40;;;;;;;-141.02;100.00;38327.56;5095032;28;20659;-62
2023/10/31 03:44:57;;;;;;;16.50;16.00;;;;;;;-141.02;100.00;38308.38;5095407;28;20671;-63
2023/10/31 03:47:25;;;;;;;17.43;16.93;;;;;;;-141.02;100.00;38308.38;5095247;28;20204;-63
2023/10/31 03:49:52;;;;;;;17.00;16.50;;;;;;;-141.02;100.00;38260.44;5095270;28;20277;-62
2023/10/31 03:52:25;;;;;;;17.00;16.50;;;;;;;-141.02;100.00;38235.53;5095141;28;20673;-63
2023/10/31 03:54:52;;;;;;;16.43;15.93;;;;;;;-141.02;100.00;38118.59;5094917;28;20667;-63
2023/10/31 03:57:19;;;;;;;15.70;15.20;;;;;;;-141.02;100.00;38130.09;5094811;28;20240;-63
2023/10/31 03:59:46;;;;;;;15.55;15.05;;;;;;;-141.02;100.00;38128.16;5095095;28;20227;-63
2023/10/31 04:02:13;;;;;;;14.85;14.45;;;;;;;-141.02;100.00;38101.34;5095054;28;20249;-63
2023/10/31 04:04:41;;;;;;;15.93;15.43;;;;;;;-141.02;100.00;38128.16;5094082;28;20211;-62
2023/10/31 04:07:08;;;;;;;15.52;15.07;;;;;;;-141.02;100.00;38155.00;5094671;28;20237;-63
2023/10/31 04:09:34;;;;;;;15.90;15.40;;;;;;;-141.02;100.00;38197.19;5094887;28;20312;-62
2023/10/31 04:12:01;;;;;;;15.98;15.48;;;;;;;-141.02;100.00;38170.34;5094726;28;20359;-63
2023/10/31 04:14:28;;;;;;;16.00;15.50;;;;;;;-141.02;100.00;38147.34;5095032;28;20233;-62
2023/10/31 04:16:55;;;;;;;16.90;16.40;;;;;;;-141.02;100.00;38220.19;5094702;28;20197;-62
2023/10/31 04:19:26;;;;;;;17.92;17.33;;;;;;;-141.02;100.00;38231.69;5092078;28;20606;-62
2023/10/31 04:21:55;;;;;;;16.70;16.20;;;;;;;-141.02;100.00;38216.34;5094657;28;20225;-62
2023/10/31 04:24:22;;;;;;;16.60;16.10;;;;;;;-141.02;100.00;38204.84;5094346;28;20676;-62
2023/10/31 04:26:49;;;;;;;17.48;16.95;;;;;;;-141.02;100.00;38231.69;5094524;28;20224;-63
2023/10/31 04:29:16;;;;;;;17.73;17.15;;;;;;;-141.02;100.00;38212.53;5094450;28;20280;-62
2023/10/31 04:31:42;;;;;;;18.37;17.77;;;;;;;-141.02;100.00;38193.34;5094136;28;20320;-62
2023/10/31 04:34:09;;;;;;;17.20;16.70;;;;;;;-141.02;100.00;38130.09;5094365;28;20281;-63
2023/10/31 04:36:36;;;;;;;16.88;16.38;;;;;;;-141.02;100.00;38040.00;5094406;28;20230;-63
2023/10/31 04:39:05;;;;;;;14.60;14.20;;;;;;;-141.02;100.00;37988.22;5094318;28;20198;-62
2023/10/31 04:41:32;;;;;;;16.63;16.13;;;;;;;-141.02;100.00;37997.81;5094366;28;20193;-63
2023/10/31 04:43:59;;;;;;;17.87;17.27;;;;;;;-141.02;100.00;38068.75;5093976;28;20652;-63
2023/10/31 04:46:27;;;;;;;18.20;17.60;;;;;;;-141.02;100.00;38141.59;5093905;28;20778;-63
2023/10/31 04:48:54;;;;;;;15.07;14.67;;;;;;;-141.02;100.00;38178.00;5093921;28;20193;-62
2023/10/31 04:51:21;;;;;;;14.80;14.40;;;;;;;-141.02;100.00;38208.69;5093995;28;20332;-62
2023/10/31 04:53:48;;;;;;;14.60;14.20;;;;;;;-141.02;100.00;38296.88;5093759;28;20294;-62
2023/10/31 04:56:17;;;;;;;18.77;18.17;;;;;;;-141.02;100.00;38350.56;5094050;28;20624;-62
2023/10/31 04:58:44;;;;;;;10.87;10.57;;;;;;;-141.02;100.00;38362.06;5093979;28;20236;-62
2023/10/31 05:01:12;;;;;;;15.10;14.70;;;;;;;-141.02;100.00;38319.88;5094026;28;20244;-62
2023/10/31 05:03:39;;;;;;;15.17;14.77;;;;;;;-141.02;100.00;38317.97;5093516;28;20205;-62
2023/10/31 05:06:06;;;;;;;11.83;11.53;;;;;;;-141.02;100.00;38379.31;5093822;28;20194;-62
2023/10/31 05:08:33;;;;;;;13.13;12.73;;;;;;;-141.02;100.00;38469.44;5093757;28;20233;-63
2023/10/31 05:11:00;;;;;;;13.03;12.63;;;;;;;-141.02;100.00;38595.97;5093419;28;20284;-62
2023/10/31 05:13:29;;;;;;;12.88;12.48;;;;;;;-141.02;100.00;38711.00;5093776;28;20255;-62
2023/10/31 05:15:56;;;;;;;14.40;14.00;;;;;;;-141.02;100.00;38795.38;5093593;28;20199;-62
2023/10/31 05:18:24;;;;;;;16.30;15.80;;;;;;;-141.02;100.00;38883.56;5093371;28;20282;-62
2023/10/31 05:20:50;;;;;;;13.82;13.43;;;;;;;-141.02;100.00;38837.56;5093197;28;20208;-62
2023/10/31 05:23:17;;;;;;;16.45;15.95;;;;;;;-141.02;100.00;38883.56;5093483;28;20204;-62
2023/10/31 05:25:44;;;;;;;17.60;17.10;;;;;;;-141.02;100.00;38939.19;5093188;28;20247;-62
2023/10/31 05:28:11;;;;;;;17.55;17.05;;;;;;;-141.02;100.00;39019.72;5093424;28;20276;-63
2023/10/31 05:30:40;;;;;;;19.27;18.67;;;;;;;-141.02;100.00;39117.53;5093450;28;20197;-62
2023/10/31 05:33:07;;;;;;;18.88;18.27;;;;;;;-141.02;100.00;39155.88;5093224;28;20229;-62
2023/10/31 05:35:34;;;;;;;17.70;17.10;;;;;;;-141.02;100.00;39199.97;5093320;28;20198;-62
2023/10/31 05:38:01;;;;;;;18.98;18.38;;;;;;;-141.02;100.00;39178.88;5093215;28;20197;-62
2023/10/31 05:40:29;;;;;;;19.02;18.42;;;;;;;-141.02;100.00;39186.56;5093237;28;20225;-62
2023/10/31 05:42:57;;;;;;;16.90;16.40;;;;;;;-141.02;100.00;39221.06;5093214;28;20194;-62
2023/10/31 05:45:24;;;;;;;19.45;18.83;;;;;;;-141.02;100.00;39259.44;5093070;28;20208;-62
2023/10/31 05:47:52;;;;;;;20.70;20.00;;;;;;;-141.02;100.00;39288.19;5093170;28;20225;-62
2023/10/31 05:50:19;;;;;;;21.88;21.08;;;;;;;-141.02;100.00;39292.03;5093071;28;20194;-62
2023/10/31 05:52:46;;;;;;;21.63;20.83;;;;;;;-141.02;100.00;39297.78;5092920;28;20887;-62
2023/10/31 05:55:13;;;;;;;21.35;20.65;;;;;;;-141.02;100.00;39435.88;5092583;28;20229;-62
2023/10/31 05:57:40;;;;;;;22.35;21.55;;;;;;;-141.02;100.00;39481.88;5092891;28;20273;-62
2023/10/31 06:00:08;;;;;;;18.23;17.63;;;;;;;-141.02;100.00;39478.06;5092927;28;20317;-62
2023/10/31 06:02:35;;;;;;;23.65;22.75;;;;;;;-141.02;100.00;39499.16;5092854;28;20225;-62
2023/10/31 06:05:04;;;;;;;23.58;22.67;;;;;;;-141.02;100.00;39435.88;5092877;28;20226;-62
2023/10/31 06:07:31;;;;;;;24.38;23.48;;;;;;;-141.02;100.00;39512.56;5092502;28;20641;-62
2023/10/31 06:09:58;;;;;;;23.65;22.75;;;;;;;-141.02;100.00;39512.56;5092685;28;20217;-62
2023/10/31 06:12:25;;;;;;;19.05;18.45;;;;;;;-141.02;100.00;39558.59;5092714;28;20257;-62
2023/10/31 06:14:52;;;;;;;22.35;21.55;;;;;;;-141.02;100.00;39583.53;5092667;28;20620;-62
2023/10/31 06:17:19;;;;;;;16.55;16.05;;;;;;;-141.02;100.00;39581.63;5092622;28;20198;-62
2023/10/31 06:19:47;;;;;;;17.90;17.30;;;;;;;-141.02;100.00;39573.94;5092150;28;20233;-62
2023/10/31 06:22:16;;;;;;;16.25;15.75;;;;;;;-141.02;100.00;39596.97;5092317;28;20189;-62
2023/10/31 06:24:43;;;;;;;10.85;10.55;;;;;;;-141.02;100.00;39635.31;5092228;28;20197;-62
2023/10/31 06:27:10;;;;;;;10.63;10.32;;;;;;;-141.02;100.00;39658.34;5091668;28;20204;-62
2023/10/31 06:29:37;;;;;;;11.05;10.75;;;;;;;-141.02;100.00;39619.97;5092476;28;20284;-62
2023/10/31 06:32:04;;;;;;;11.40;11.10;;;;;;;-141.02;100.00;39681.34;5092115;28;20316;-62
2023/10/31 06:34:31;;;;;;;11.60;11.30;;;;;;;-141.02;100.00;39689.03;5092173;28;20280;-62
2023/10/31 06:36:58;;;;;;;12.05;11.65;;;;;;;-141.02;100.00;39700.53;5092619;28;20193;-62
2023/10/31 06:39:26;;;;;;;12.30;11.90;;;;;;;-141.02;100.00;39744.66;5092416;28;20569;-62
2023/10/31 06:41:56;;;;;;;12.48;12.07;;;;;;;-141.02;100.00;39809.84;5092079;28;20751;-62
2023/10/31 06:44:23;;;;;;;12.80;12.40;;;;;;;-141.02;100.00;39832.88;5092341;28;20264;-62
2023/10/31 06:46:50;;;;;;;12.65;12.25;;;;;;;-141.02;100.00;39884.66;5092335;28;20190;-62
2023/10/31 06:49:17;;;;;;;12.88;12.48;;;;;;;-141.02;100.00;39915.34;5091994;28;20280;-62
2023/10/31 06:51:44;;;;;;;12.80;12.40;;;;;;;-141.02;100.00;39946.03;5091899;28;20653;-62
2023/10/31 06:54:11;;;;;;;13.43;13.02;;;;;;;-141.02;100.00;39926.84;5092009;28;20189;-62
2023/10/31 06:56:39;;;;;;;12.27;11.88;;;;;;;-141.02;100.00;39917.25;5091881;28;20673;-62
2023/10/31 06:59:06;;;;;;;11.00;10.70;;;;;;;-141.02;100.00;39926.84;5092236;28;20198;-63
2023/10/31 07:01:35;;;;;;;11.40;11.10;;;;;;;-141.02;100.00;39911.50;5091796;28;20639;-62
2023/10/31 07:04:02;;;;;;;12.15;11.75;;;;;;;-141.02;100.00;39896.16;5092163;28;20281;-62
2023/10/31 07:06:29;;;;;;;12.85;12.45;;;;;;;-141.02;100.00;39974.81;5092108;28;20222;-62
2023/10/31 07:08:57;;;;;;;13.30;12.90;;;;;;;-141.02;100.00;40007.41;5092098;28;20277;-62
2023/10/31 07:11:24;;;;;;;12.48;12.07;;;;;;;-141.02;100.00;40034.28;5091846;28;20194;-62
2023/10/31 07:13:52;;;;;;;13.32;12.93;;;;;;;-141.02;100.00;40126.34;5091982;28;20225;-62
2023/10/31 07:16:19;;;;;;;13.38;12.98;;;;;;;-141.02;100.00;40122.50;5092028;28;20194;-62
2023/10/31 07:18:46;;;;;;;15.45;14.85;;;;;;;-141.02;100.00;40183.88;5091528;28;20783;-62
2023/10/31 07:33:21;;;;;;;16.33;15.73;;;;;;;-141.02;100.00;40463.97;5151590;27;20897;-67
2023/10/31 07:35:48;;;;;;;15.75;15.15;;;;;;;-141.02;100.00;40510.00;5151021;27;20191;-69
2023/10/31 07:38:15;;;;;;;15.70;15.10;;;;;;;-141.02;100.00;40536.88;5150874;27;20192;-66
2023/10/31 07:40:42;;;;;;;16.33;15.73;;;;;;;-141.02;99.38;40590.59;5150793;27;20657;-67
2023/10/31 07:43:09;;;;;;;16.33;15.63;;;;;;;-141.02;97.48;40607.84;5150796;27;20295;-67
2023/10/31 07:45:36;;;;;;;15.63;15.02;;;;;;;-141.02;98.14;40651.97;5150791;27;20657;-68
2023/10/31 07:48:03;;;;;;;15.98;15.38;;;;;;;-141.02;97.36;40650.06;5151002;27;20605;-68
2023/10/31 07:50:32;;;;;;;16.48;15.88;;;;;;;-141.02;97.88;40694.19;5150946;27;20192;-67
2023/10/31 07:52:59;;;;;;;16.42;15.82;;;;;;;-141.02;95.26;40694.19;5150669;27;20683;-67
2023/10/31 07:55:26;;;;;;;16.67;16.08;;;;;;;-141.02;94.84;40776.69;5150546;27;20231;-69
2023/10/31 07:57:53;;;;;;;16.73;16.13;;;;;;;-141.02;94.61;40763.25;5150500;27;20198;-67
2023/10/31 08:00:21;;;;;;;16.48;15.88;;;;;;;-141.02;95.03;40820.81;5150447;27;20195;-68
2023/10/31 08:02:48;;;;;;;17.20;16.60;;;;;;;-141.02;92.95;40841.91;5150342;27;20757;-68
2023/10/31 08:05:15;;;;;;;17.55;16.95;;;;;;;-141.02;91.20;40868.78;5150686;27;20192;-66
2023/10/31 08:07:44;;;;;;;18.20;17.50;;;;;;;-141.02;91.15;40878.38;5150610;27;20203;-68
2023/10/31 08:10:11;;;;;;;17.70;17.00;;;;;;;-141.02;91.85;40922.50;5150581;27;20199;-67
2023/10/31 08:12:38;;;;;;;17.23;16.63;;;;;;;-141.02;89.96;40947.44;5150179;27;20317;-69
2023/10/31 08:15:06;;;;;;;18.15;17.45;;;;;;;-141.02;87.78;40962.78;5150269;27;20728;-66
2023/10/31 08:17:33;;;;;;;19.17;18.38;;;;;;;-141.02;85.45;41020.34;5150448;27;20198;-67
2023/10/31 08:19:59;;;;;;;19.00;18.20;;;;;;;-141.02;85.15;41028.03;5150021;27;20200;-66
2023/10/31 08:22:26;;;;;;;19.35;18.55;;;;;;;-141.02;84.18;41066.41;5150284;27;20276;-67
2023/10/31 08:24:55;;;;;;;20.63;19.73;;;;;;;-141.02;83.46;41112.44;5149963;27;20661;-67
2023/10/31 08:27:22;;;;;;;20.50;19.60;;;;;;;-141.02;81.15;41146.97;5149968;27;20752;-67
2023/10/31 08:29:49;;;;;;;20.90;20.00;;;;;;;-141.02;80.95;41162.34;5150158;27;20202;-68
2023/10/31 08:32:16;;;;;;;21.00;20.10;;;;;;;-141.02;78.40;41194.94;5147488;27;20231;-67
2023/10/31 08:34:43;;;;;;;20.52;19.63;;;;;;;-141.02;76.96;41235.25;5135847;27;20207;-68
2023/10/31 08:37:10;;;;;;;20.65;19.75;;;;;;;-141.02;75.80;41292.81;5136223;27;20192;-67
2023/10/31 08:39:37;;;;;;;20.95;19.95;;;;;;;-141.02;73.88;41306.25;5136290;27;20214;-69
2023/10/31 08:42:05;;;;;;;19.73;18.83;;;;;;;-141.02;74.16;41358.06;5136074;27;20292;-67
2023/10/31 08:44:33;;;;;;;20.55;19.65;;;;;;;-141.02;71.51;41427.13;5135858;27;20240;-67
2023/10/31 08:47:00;;;;;;;21.67;20.67;;;;;;;-141.02;69.03;41477.03;5135762;27;20197;-68
2023/10/31 08:49:27;;;;;;;21.55;20.55;;;;;;;-141.02;68.37;41500.06;5135978;27;20198;-68
2023/10/31 08:51:54;;;;;;;21.80;20.80;;;;;;;-141.02;70.68;41549.94;5136455;27;20192;-69
2023/10/31 08:54:21;;;;;;;21.73;20.70;;;;;;;-141.02;67.26;41601.75;5135640;27;20198;-68
2023/10/31 08:56:47;;;;;;;21.80;20.80;;;;;;;-141.02;65.38;41665.09;5135885;27;20271;-68
2023/10/31 08:59:16;;;;;;;21.55;20.55;;;;;;;-141.02;66.99;41703.47;5135822;27;20203;-68
2023/10/31 09:01:43;;;;;;;21.15;20.15;;;;;;;-141.02;67.84;41730.34;5135768;27;20700;-68
2023/10/31 09:04:10;;;;;;;20.77;19.77;;;;;;;-141.02;67.92;41745.69;5135545;27;20196;-67
2023/10/31 09:06:37;;;;;;;21.35;20.35;;;;;;;-141.02;69.58;41768.72;5135728;27;20231;-67
2023/10/31 09:09:04;;;;;;;21.55;20.55;;;;;;;-141.02;67.20;41784.06;5135375;27;20195;-67
2023/10/31 09:11:31;;;;;;;21.42;20.42;;;;;;;-141.02;68.45;41812.88;5135489;27;20200;-67
2023/10/31 09:13:58;;;;;;;21.60;20.50;;;;;;;-141.02;66.92;41851.25;5135597;27;20193;-68
2023/10/31 09:16:27;;;;;;;22.00;20.90;;;;;;;-141.02;62.63;41887.72;5135244;27;20653;-68
2023/10/31 09:18:54;;;;;;;21.23;20.20;;;;;;;-141.02;62.85;41924.19;5135407;27;20218;-68
2023/10/31 09:21:20;;;;;;;22.10;21.10;;;;;;;-141.02;60.83;42002.88;5135345;27;20225;-68
2023/10/31 09:23:47;;;;;;;20.70;19.70;;;;;;;-141.02;61.21;42060.44;5135417;27;20189;-68
2023/10/31 09:26:14;;;;;;;20.88;19.88;;;;;;;-141.02;59.47;42127.63;5135043;27;20192;-67
2023/10/31 09:28:49;;;;;;;20.88;19.88;;;;;;;-141.02;59.33;42190.97;5134989;27;20192;-67
2023/10/31 09:31:16;;;;;;;20.50;19.42;;;;;;;-141.02;60.83;42198.63;5135106;27;20232;-69
2023/10/31 09:33:44;;;;;;;20.65;19.55;;;;;;;-141.02;61.96;42256.22;5134901;27;20271;-68
2023/10/31 09:36:12;;;;;;;20.30;19.30;;;;;;;-141.02;61.80;42260.06;5135076;27;20199;-67
2023/10/31 09:38:39;;;;;;;20.20;19.20;;;;;;;-141.02;60.67;42283.09;5135161;27;20196;-67
2023/10/31 09:41:07;;;;;;;20.40;19.35;;;;;;;-141.02;60.08;42321.47;5134630;27;20199;-68
2023/10/31 09:43:34;;;;;;;19.80;18.80;;;;;;;-141.02;58.10;42373.31;5134998;27;20192;-68
2023/10/31 09:46:01;;;;;;;20.90;19.80;;;;;;;-141.02;59.22;42390.59;5133985;27;20202;-68
2023/10/31 09:48:28;;;;;;;20.98;19.88;;;;;;;-141.02;58.86;42446.25;5134867;27;20188;-67
2023/10/31 09:50:57;;;;;;;20.10;19.00;;;;;;;-141.02;61.61;42436.66;5134785;27;20246;-67
2023/10/31 09:53:25;;;;;;;19.35;18.25;;;;;;;-141.02;59.36;42471.19;5134444;27;20203;-67
2023/10/31 09:55:56;;;;;;;19.30;18.20;;;;;;;-141.02;58.04;42432.81;5134420;27;20558;-68
2023/10/31 09:58:22;;;;;;;19.25;18.15;;;;;;;-141.02;57.40;42359.88;5134401;27;20185;-68
2023/10/31 10:00:49;;;;;;;18.67;17.67;;;;;;;-141.02;59.03;42488.47;5134393;27;20204;-68
2023/10/31 10:03:17;;;;;;;18.92;17.92;;;;;;;-141.02;59.43;42532.63;5134467;27;20318;-68
2023/10/31 10:05:46;;;;;;;19.25;18.15;;;;;;;-141.02;58.04;42563.34;5134242;27;20666;-68
2023/10/31 10:08:15;;;;;;;19.27;18.17;;;;;;;-141.02;58.01;42578.69;5134212;27;20697;-69
2023/10/31 10:10:42;;;;;;;19.52;18.42;;;;;;;-141.02;57.61;42632.44;5134382;27;20271;-68
2023/10/31 10:13:12;;;;;;;19.48;18.38;;;;;;;-141.02;57.09;42567.19;5134087;27;20859;-68
2023/10/31 10:15:48;;;;;;;19.20;18.20;;;;;;;-141.02;57.71;42586.38;5134329;27;20619;-68
2023/10/31 10:18:26;;;;;;;49.55;46.85;;;;;;;-141.02;58.26;42667.00;5134282;27;20224;-68
2023/10/31 10:20:57;;;;;;;59.75;56.60;;;;;;;-141.02;57.60;42743.78;5133948;27;20586;-69
2023/10/31 10:23:26;;;;;;;18.40;17.45;;;;;;;-141.02;55.88;42766.81;5134148;27;20246;-68
2023/10/31 10:25:54;;;;;;;52.45;49.80;;;;;;;-141.02;55.01;42768.75;5134115;27;20268;-69
2023/10/31 10:28:21;;;;;;;57.42;54.33;;;;;;;-141.02;55.60;42770.66;5133747;27;20192;-69
2023/10/31 10:30:48;;;;;;;55.80;52.80;;;;;;;-141.02;55.63;42797.53;5134034;27;20188;-68
2023/10/31 10:33:16;;;;;;;49.22;46.53;;;;;;;-141.02;56.09;42812.91;5133512;27;20318;-68
2023/10/31 10:35:44;;;;;;;49.15;46.45;;;;;;;-141.02;56.86;42751.47;5133632;27;20202;-67
2023/10/31 10:38:13;;;;;;;49.47;46.78;;;;;;;-141.02;56.29;42832.09;5133567;27;20204;-68
2023/10/31 10:40:44;;;;;;;48.70;46.00;;;;;;;-141.02;57.50;42786.03;5133895;27;20200;-68
2023/10/31 10:43:14;;;;;;;47.55;44.95;;;;;;;-141.02;56.18;42803.31;5133389;27;20251;-70
2023/10/31 10:45:44;;;;;;;41.05;38.95;;;;;;;-141.02;55.88;42759.16;5133861;27;20191;-67
2023/10/31 10:48:14;;;;;;;46.95;44.35;;;;;;;-141.02;55.87;42784.09;5133711;27;20196;-68
2023/10/31 10:50:43;;;;;;;46.75;44.15;;;;;;;-141.02;56.38;42759.16;5133978;27;20189;-67
2023/10/31 10:53:18;;;;;;;47.38;44.78;;;;;;;-141.02;56.65;42761.06;5133610;27;20218;-67
2023/10/31 10:55:52;;;;;;;46.42;43.88;;;;;;;-141.02;55.66;42786.03;5133087;27;20649;-67
2023/10/31 10:58:27;;;;;;;47.15;44.55;;;;;;;-141.02;56.47;42805.22;5133584;27;20187;-68
2023/10/31 11:00:56;;;;;;;45.65;43.17;;;;;;;-141.02;56.15;42784.09;5133638;27;20257;-68
2023/10/31 11:03:25;;;;;;;54.50;51.60;;;;;;;-141.02;56.18;42776.44;5133419;27;20228;-68
2023/10/31 11:05:52;;;;;;;56.80;53.72;;;;;;;-141.02;56.43;42810.97;5133576;27;20200;-69
2023/10/31 11:08:21;;;;;;;59.35;56.15;;;;;;;-141.02;56.34;42849.38;5133481;27;20195;-67
2023/10/31 11:10:51;;;;;;;49.92;47.22;;;;;;;-141.02;56.10;42828.25;5133117;27;20283;-67
2023/10/31 11:13:18;;;;;;;49.90;47.20;;;;;;;-141.02;56.61;42832.09;5133431;27;20232;-68